CN-0053 weather

Baihe Ning Ming Air Base
Guangxi Autonomous Region, China

Public forecast

Using degrees Celsius for public forecast. Weather courtesy of forecast.io.

METAR (pilot weather report)

Closest report is Nanning Wuxu Airport, 65.1 nm (120.5 km) ENE. Retrieved 2019/05/20 00:00 UTC (9 minutes ago):

ZGNN 200000Z 04004MPS 6000 SCT010 29/26 Q1008 NOSIG

TAF (pilot weather forecast)

Forecast is more than 12 hours old.

Closest forecast is Nanning Wuxu Airport, 65.1 nm (120.5 km) ENE. Retrieved 2019/05/19 00:00 UTC (1 day ago):

TAF ZGNN 191912Z 2000/2024 03004MPS 9999 FEW015 BKN033 TX30/2007Z TN21/2022Z TEMPO 2000/2002 -TSRA SCT010 FEW026CB BKN030